Time;durP1;ratioP1;P1;durP2;ratioP2;P2;SDS_P1;SDS_P2;PMS_P1;PMS_P2;Temp;Humidity;BMP_temperature;BMP_pressure;BME280_temperature;BME280_humidity;BME280_pressure;Samples;Min_cycle;Max_cycle;Signal;HPM_P1;HPM_P2
2021/10/18 00:00:02;;;;;;;0.60;0.60;;;22.50;48.20;;;;;;5069873;28;20272;-47
2021/10/18 00:02:33;;;;;;;0.75;0.70;;;22.60;48.30;;;;;;5072596;28;20281;-46
2021/10/18 00:05:03;;;;;;;0.75;0.50;;;22.60;48.30;;;;;;5083128;28;20285;-47
2021/10/18 00:07:34;;;;;;;0.80;0.60;;;22.60;48.30;;;;;;5076665;28;20203;-46
2021/10/18 00:10:06;;;;;;;1.13;0.55;;;22.60;48.30;;;;;;5072721;28;20717;-51
2021/10/18 00:12:37;;;;;;;1.65;0.57;;;22.70;48.30;;;;;;5081520;28;20657;-43
2021/10/18 00:15:09;;;;;;;0.40;0.40;;;22.70;48.30;;;;;;5079176;28;20227;-47
2021/10/18 00:17:39;;;;;;;0.60;0.60;;;22.70;48.30;;;;;;5075951;28;20956;-48
2021/10/18 00:20:12;;;;;;;1.02;0.50;;;22.80;48.40;;;;;;5083877;28;20839;-48
2021/10/18 00:22:43;;;;;;;0.60;0.40;;;22.80;48.40;;;;;;5081036;28;20237;-47
2021/10/18 00:25:16;;;;;;;0.63;0.50;;;22.80;48.30;;;;;;5088500;28;20269;-49
2021/10/18 00:27:46;;;;;;;0.70;0.50;;;22.80;48.30;;;;;;5071851;28;20689;-49
2021/10/18 00:30:17;;;;;;;0.60;0.50;;;22.90;48.30;;;;;;5083056;28;20261;-48
2021/10/18 00:32:48;;;;;;;0.85;0.40;;;22.90;48.40;;;;;;5074387;28;20254;-47
2021/10/18 00:35:18;;;;;;;0.60;0.40;;;22.90;48.40;;;;;;5072779;28;20293;-49
2021/10/18 00:37:48;;;;;;;0.40;0.32;;;22.90;48.40;;;;;;5078377;28;20238;-48
2021/10/18 00:40:21;;;;;;;0.43;0.43;;;23.00;48.40;;;;;;5074917;28;20242;-53
2021/10/18 00:42:53;;;;;;;0.90;0.50;;;23.00;48.30;;;;;;5073246;28;20198;-50
2021/10/18 00:45:24;;;;;;;1.17;0.47;;;23.00;48.30;;;;;;5072660;28;20531;-52
2021/10/18 00:47:55;;;;;;;0.38;0.32;;;23.00;48.30;;;;;;5087124;28;20739;-51
2021/10/18 00:50:25;;;;;;;0.73;0.40;;;23.00;48.30;;;;;;5070889;28;20272;-45
2021/10/18 00:52:56;;;;;;;1.35;0.45;;;23.00;48.20;;;;;;5071548;28;20263;-47
2021/10/18 00:55:29;;;;;;;0.30;0.30;;;23.00;48.20;;;;;;5071951;28;20285;-51
2021/10/18 00:57:59;;;;;;;0.90;0.50;;;23.10;48.30;;;;;;5071536;28;20256;-50
2021/10/18 01:00:30;;;;;;;0.88;0.40;;;23.10;48.30;;;;;;5072136;28;20345;-43
2021/10/18 01:03:01;;;;;;;0.50;0.30;;;23.10;48.30;;;;;;5077971;28;20239;-52
2021/10/18 01:05:34;;;;;;;0.60;0.40;;;23.10;48.30;;;;;;5077680;28;20697;-50
2021/10/18 01:08:05;;;;;;;0.35;0.28;;;23.10;48.30;;;;;;5071329;28;20247;-50
2021/10/18 01:10:37;;;;;;;0.77;0.40;;;23.20;48.40;;;;;;5071174;28;21813;-53
2021/10/18 01:13:08;;;;;;;0.75;0.40;;;23.20;48.40;;;;;;5069837;28;20637;-47
2021/10/18 01:15:39;;;;;;;1.02;0.50;;;23.20;48.30;;;;;;5083963;28;20705;-46
2021/10/18 01:18:09;;;;;;;0.30;0.30;;;23.20;48.30;;;;;;5072754;28;20641;-53
2021/10/18 01:20:43;;;;;;;0.60;0.40;;;23.30;48.40;;;;;;5071111;28;20257;-48
2021/10/18 01:23:14;;;;;;;0.80;0.60;;;23.30;48.30;;;;;;5079671;28;20229;-47
2021/10/18 01:25:44;;;;;;;0.40;0.32;;;23.30;48.30;;;;;;5081588;28;20288;-50
2021/10/18 01:28:15;;;;;;;0.82;0.50;;;23.30;48.20;;;;;;5071846;28;20833;-50
2021/10/18 01:30:45;;;;;;;0.32;0.32;;;23.30;48.20;;;;;;5078892;28;20250;-49
2021/10/18 01:33:16;;;;;;;0.40;0.40;;;23.30;48.00;;;;;;5086601;28;21239;-44
2021/10/18 01:35:48;;;;;;;0.55;0.30;;;23.30;47.90;;;;;;5087189;28;20238;-52
2021/10/18 01:38:19;;;;;;;0.38;0.30;;;23.40;48.00;;;;;;5070975;28;20662;-48
2021/10/18 01:40:49;;;;;;;0.40;0.40;;;23.40;48.10;;;;;;5071153;28;20250;-46
2021/10/18 01:43:20;;;;;;;0.52;0.38;;;23.40;48.20;;;;;;5071948;28;20285;-53
2021/10/18 01:45:50;;;;;;;0.80;0.40;;;23.40;48.20;;;;;;5071325;28;20627;-44
2021/10/18 01:48:20;;;;;;;0.38;0.38;;;23.50;48.30;;;;;;5071364;28;20223;-49
2021/10/18 01:50:53;;;;;;;0.70;0.40;;;23.50;48.20;;;;;;5072553;28;20214;-49
2021/10/18 01:53:23;;;;;;;0.30;0.30;;;23.50;48.00;;;;;;5071543;28;20250;-48
2021/10/18 01:55:54;;;;;;;0.30;0.30;;;23.50;48.00;;;;;;5085422;28;20795;-51
2021/10/18 01:58:25;;;;;;;1.50;0.40;;;23.50;48.00;;;;;;5070474;28;20233;-43
2021/10/18 02:00:55;;;;;;;0.65;0.30;;;23.60;47.50;;;;;;5087066;28;20218;-45
2021/10/18 02:03:26;;;;;;;0.38;0.30;;;23.60;47.20;;;;;;5076985;28;20237;-51
2021/10/18 02:05:58;;;;;;;0.63;0.30;;;23.70;46.90;;;;;;5075769;28;20334;-45
2021/10/18 02:08:29;;;;;;;0.40;0.20;;;23.70;46.90;;;;;;5077196;28;20234;-50
2021/10/18 02:10:59;;;;;;;0.63;0.30;;;23.70;46.90;;;;;;5074937;28;20257;-47
2021/10/18 02:13:30;;;;;;;0.50;0.35;;;23.70;46.80;;;;;;5076316;28;20269;-45
2021/10/18 02:16:00;;;;;;;0.50;0.30;;;23.70;46.80;;;;;;5080102;28;20222;-50
2021/10/18 02:18:31;;;;;;;0.63;0.40;;;23.80;46.90;;;;;;5072889;28;20230;-50
2021/10/18 02:21:03;;;;;;;0.30;0.30;;;23.80;46.90;;;;;;5089095;28;20313;-48
2021/10/18 02:23:34;;;;;;;0.30;0.30;;;23.80;46.90;;;;;;5076123;28;20700;-48
2021/10/18 02:26:05;;;;;;;0.25;0.25;;;23.80;47.00;;;;;;5073764;28;20285;-47
2021/10/18 02:28:35;;;;;;;0.40;0.25;;;23.90;47.00;;;;;;5073803;28;20289;-44
2021/10/18 02:31:06;;;;;;;0.30;0.30;;;23.90;46.90;;;;;;5079537;28;20301;-48
2021/10/18 02:33:36;;;;;;;0.75;0.38;;;24.00;46.90;;;;;;5080628;28;20297;-48
2021/10/18 02:36:08;;;;;;;0.40;0.40;;;24.00;46.90;;;;;;5077043;28;20629;-47
2021/10/18 02:38:39;;;;;;;0.65;0.30;;;24.00;46.90;;;;;;5074507;28;20295;-46
2021/10/18 02:41:10;;;;;;;0.30;0.30;;;24.10;46.90;;;;;;5074297;28;20269;-52
2021/10/18 02:43:40;;;;;;;0.30;0.30;;;24.10;46.80;;;;;;5065159;28;20286;-42
2021/10/18 02:46:11;;;;;;;0.30;0.30;;;24.20;46.70;;;;;;5073932;28;20245;-48
2021/10/18 02:48:41;;;;;;;0.30;0.20;;;24.20;46.70;;;;;;5072777;28;20290;-51
2021/10/18 02:51:13;;;;;;;1.17;0.25;;;24.20;46.70;;;;;;5081788;28;20297;-51
2021/10/18 02:53:45;;;;;;;0.60;0.30;;;24.20;46.60;;;;;;5080833;28;20222;-51
2021/10/18 02:56:16;;;;;;;0.40;0.30;;;24.30;46.80;;;;;;5074058;28;20239;-52
2021/10/18 02:58:46;;;;;;;0.35;0.20;;;24.30;46.70;;;;;;5076154;28;21230;-51
2021/10/18 03:01:17;;;;;;;0.60;0.30;;;24.40;46.70;;;;;;5081507;28;20249;-53
2021/10/18 03:03:47;;;;;;;0.20;0.20;;;24.40;46.80;;;;;;5083376;28;20241;-46
2021/10/18 03:06:19;;;;;;;0.20;0.20;;;24.40;46.90;;;;;;5087553;28;20259;-44
2021/10/18 03:08:50;;;;;;;0.30;0.30;;;24.50;46.90;;;;;;5073746;28;20325;-50
2021/10/18 03:11:20;;;;;;;0.35;0.30;;;24.50;46.90;;;;;;5074641;28;20305;-51
2021/10/18 03:13:51;;;;;;;0.43;0.20;;;24.60;47.00;;;;;;5074129;28;20762;-47
2021/10/18 03:16:22;;;;;;;0.20;0.20;;;24.60;47.00;;;;;;5075420;28;20230;-45
2021/10/18 03:18:52;;;;;;;0.22;0.22;;;24.70;46.90;;;;;;5076303;28;20281;-48
2021/10/18 03:21:25;;;;;;;0.25;0.25;;;24.70;46.70;;;;;;5088580;28;20237;-51
2021/10/18 03:23:55;;;;;;;0.30;0.30;;;24.70;46.70;;;;;;5081851;28;20252;-51
2021/10/18 03:26:26;;;;;;;0.63;0.32;;;24.80;46.70;;;;;;5089159;28;20229;-46
2021/10/18 03:28:56;;;;;;;0.30;0.20;;;24.80;46.60;;;;;;5072031;28;20264;-50
2021/10/18 03:31:27;;;;;;;0.15;0.15;;;24.90;46.60;;;;;;5075903;28;20254;-49
2021/10/18 03:33:57;;;;;;;0.20;0.20;;;24.90;46.50;;;;;;5073361;28;20305;-47
2021/10/18 03:36:29;;;;;;;0.20;0.20;;;24.90;46.20;;;;;;5078132;28;20281;-47
2021/10/18 03:39:00;;;;;;;0.22;0.22;;;25.00;46.30;;;;;;5073478;28;20272;-47
2021/10/18 03:41:30;;;;;;;0.28;0.20;;;25.00;46.20;;;;;;5074442;28;20253;-51
2021/10/18 03:44:01;;;;;;;0.22;0.10;;;25.00;46.10;;;;;;5077987;28;20282;-44
2021/10/18 03:46:31;;;;;;;0.17;0.17;;;25.00;46.00;;;;;;5071279;28;20271;-52
2021/10/18 03:49:02;;;;;;;0.20;0.20;;;25.00;45.90;;;;;;5087403;28;20256;-55
2021/10/18 03:51:34;;;;;;;0.20;0.20;;;25.00;45.90;;;;;;5097458;28;20297;-45
2021/10/18 03:54:05;;;;;;;2.42;0.30;;;25.10;45.80;;;;;;5074175;28;20219;-48
2021/10/18 03:56:35;;;;;;;0.55;0.20;;;25.10;45.90;;;;;;5072460;28;20694;-48
2021/10/18 03:59:06;;;;;;;0.82;0.30;;;25.10;46.00;;;;;;5073360;28;20219;-45
2021/10/18 04:01:36;;;;;;;1.30;0.20;;;25.10;46.00;;;;;;5072053;28;20249;-52
2021/10/18 04:04:07;;;;;;;0.30;0.30;;;25.10;46.10;;;;;;5075978;28;20223;-51
2021/10/18 04:06:39;;;;;;;1.02;0.30;;;25.10;46.10;;;;;;5088734;28;20281;-47
2021/10/18 04:09:10;;;;;;;2.13;0.30;;;25.10;46.20;;;;;;5072318;28;20230;-55
2021/10/18 04:11:40;;;;;;;2.03;0.38;;;25.10;46.20;;;;;;5071288;28;20250;-49
2021/10/18 04:14:11;;;;;;;0.30;0.30;;;25.10;46.00;;;;;;5086013;28;20291;-49
2021/10/18 04:16:42;;;;;;;0.68;0.30;;;25.10;45.90;;;;;;5085733;28;20193;-49
2021/10/18 04:19:12;;;;;;;1.10;0.30;;;25.10;45.80;;;;;;5075975;28;20234;-54
2021/10/18 04:21:45;;;;;;;0.82;0.40;;;25.10;45.90;;;;;;5073548;28;20645;-49
2021/10/18 04:24:15;;;;;;;1.55;0.43;;;25.10;46.00;;;;;;5075331;28;20241;-50
2021/10/18 04:26:46;;;;;;;0.55;0.30;;;25.10;46.10;;;;;;5083920;28;20227;-51
2021/10/18 04:29:16;;;;;;;0.88;0.30;;;25.10;46.10;;;;;;5070678;28;20645;-55
2021/10/18 04:31:47;;;;;;;1.52;0.50;;;25.10;46.30;;;;;;5086483;28;20253;-54
2021/10/18 04:34:17;;;;;;;0.70;0.30;;;25.10;45.90;;;;;;5087154;28;20744;-47
2021/10/18 04:36:50;;;;;;;0.57;0.40;;;25.10;45.80;;;;;;5084175;28;20257;-52
2021/10/18 04:39:53;;;;;;;0.95;0.25;;;25.10;45.80;;;;;;5074050;28;20241;-49
2021/10/18 04:42:23;;;;;;;2.42;0.40;;;25.00;45.70;;;;;;5072305;28;20234;-49
2021/10/18 04:44:54;;;;;;;0.43;0.35;;;25.00;45.80;;;;;;5078024;28;20238;-45
2021/10/18 04:47:24;;;;;;;1.95;0.73;;;25.00;45.90;;;;;;5075916;28;20225;-50
2021/10/18 04:49:55;;;;;;;0.80;0.50;;;25.00;46.00;;;;;;5072672;28;20254;-48
2021/10/18 04:52:27;;;;;;;1.75;0.40;;;25.00;46.00;;;;;;5076887;28;20237;-43
2021/10/18 04:54:57;;;;;;;0.75;0.50;;;25.00;46.10;;;;;;5072148;28;20626;-53
2021/10/18 04:57:28;;;;;;;1.65;0.40;;;25.00;46.20;;;;;;5070823;28;20238;-49
2021/10/18 04:59:58;;;;;;;1.48;0.40;;;25.00;46.20;;;;;;5070794;28;20249;-50
2021/10/18 05:02:29;;;;;;;0.52;0.35;;;24.90;45.90;;;;;;5083432;28;20190;-44
2021/10/18 05:04:59;;;;;;;0.68;0.50;;;24.90;45.90;;;;;;5073627;28;20770;-51
2021/10/18 05:07:32;;;;;;;0.57;0.40;;;24.90;45.90;;;;;;5083415;28;20662;-53
2021/10/18 05:10:02;;;;;;;0.60;0.43;;;24.90;45.80;;;;;;5078551;28;20312;-53
2021/10/18 05:12:32;;;;;;;0.82;0.40;;;24.90;45.90;;;;;;5075298;28;20285;-51
2021/10/18 05:15:03;;;;;;;1.17;0.52;;;24.90;46.00;;;;;;5071600;28;20254;-49
2021/10/18 05:17:33;;;;;;;0.77;0.40;;;24.90;46.10;;;;;;5072279;28;20237;-50
2021/10/18 05:20:04;;;;;;;0.70;0.40;;;24.90;46.20;;;;;;5087730;28;20778;-51
2021/10/18 05:22:36;;;;;;;1.90;0.40;;;24.90;46.20;;;;;;5070980;28;20653;-48
2021/10/18 05:25:07;;;;;;;0.40;0.40;;;24.90;46.40;;;;;;5071869;28;20247;-54
2021/10/18 05:27:38;;;;;;;0.80;0.40;;;24.90;46.50;;;;;;5073173;28;20206;-52
2021/10/18 05:30:10;;;;;;;1.25;0.50;;;24.90;46.50;;;;;;5081594;28;20253;-52
2021/10/18 05:32:42;;;;;;;1.05;0.60;;;24.90;46.40;;;;;;5077702;28;20233;-46
2021/10/18 05:35:12;;;;;;;0.73;0.50;;;24.90;46.40;;;;;;5074166;28;20257;-49
2021/10/18 05:37:49;;;;;;;1.02;0.50;;;24.80;46.50;;;;;;5074759;28;20260;-55
2021/10/18 05:40:20;;;;;;;0.55;0.45;;;24.90;46.60;;;;;;5075575;28;20296;-55
2021/10/18 05:42:51;;;;;;;1.38;0.50;;;24.80;46.50;;;;;;5076734;28;20230;-53
2021/10/18 05:45:21;;;;;;;0.88;0.40;;;24.80;46.60;;;;;;5073819;28;20485;-43
2021/10/18 05:47:57;;;;;;;3.22;2.40;;;24.80;46.70;;;;;;5090168;28;20277;-50
2021/10/18 05:50:29;;;;;;;3.08;1.70;;;24.80;46.70;;;;;;5074204;28;20706;-49
2021/10/18 05:53:02;;;;;;;1.90;1.70;;;24.70;46.70;;;;;;5074829;28;20230;-49
2021/10/18 05:55:32;;;;;;;3.15;2.13;;;24.80;46.70;;;;;;5074926;28;20301;-48
2021/10/18 05:58:04;;;;;;;1.88;1.08;;;24.70;46.60;;;;;;5076696;28;20278;-45
2021/10/18 06:00:37;;;;;;;2.58;1.58;;;24.70;46.60;;;;;;5074747;28;20250;-46
2021/10/18 06:03:08;;;;;;;1.77;1.15;;;24.70;46.60;;;;;;5073627;28;20725;-48
2021/10/18 06:05:44;;;;;;;1.77;1.17;;;24.70;47.30;;;;;;5076041;28;20283;-47
2021/10/18 06:08:17;;;;;;;1.98;1.15;;;24.70;46.70;;;;;;5075245;28;20205;-44
2021/10/18 06:10:48;;;;;;;1.20;1.10;;;24.70;46.70;;;;;;5073256;28;20701;-45
2021/10/18 06:13:18;;;;;;;2.28;1.42;;;24.60;46.70;;;;;;5074162;28;20316;-45
2021/10/18 06:15:49;;;;;;;2.15;1.50;;;24.60;46.80;;;;;;5074427;28;20219;-46
2021/10/18 06:18:20;;;;;;;3.97;3.38;;;24.60;46.80;;;;;;5078288;28;20238;-54
2021/10/18 06:20:52;;;;;;;2.63;2.15;;;24.60;46.90;;;;;;5074283;28;20250;-48
2021/10/18 06:23:25;;;;;;;2.38;2.05;;;24.60;47.00;;;;;;5075678;28;20230;-44
2021/10/18 06:25:56;;;;;;;4.05;2.55;;;24.50;47.00;;;;;;5077344;28;20198;-43
2021/10/18 06:28:26;;;;;;;3.08;2.33;;;24.50;47.10;;;;;;5084877;28;20226;-43
2021/10/18 06:30:57;;;;;;;2.40;2.20;;;24.50;47.10;;;;;;5073813;28;20951;-43
2021/10/18 06:33:27;;;;;;;2.15;1.95;;;24.50;47.10;;;;;;5081451;28;20225;-51
2021/10/18 06:35:58;;;;;;;2.42;1.92;;;24.50;47.20;;;;;;5073399;28;20736;-45
2021/10/18 06:38:30;;;;;;;2.65;2.20;;;24.50;47.10;;;;;;5073606;28;20241;-48
2021/10/18 06:41:01;;;;;;;3.80;3.35;;;24.50;47.10;;;;;;5088676;28;20310;-44
2021/10/18 06:43:31;;;;;;;8.25;7.35;;;24.40;47.00;;;;;;5078941;28;20697;-47
2021/10/18 06:46:02;;;;;;;15.63;13.27;;;24.40;47.20;;;;;;5079427;28;20627;-44
2021/10/18 06:48:35;;;;;;;16.20;14.50;;;24.40;47.60;;;;;;5085968;28;20230;-42
2021/10/18 06:51:06;;;;;;;21.13;15.75;;;24.40;48.00;;;;;;5075355;28;20276;-48
2021/10/18 06:53:39;;;;;;;17.80;15.98;;;24.30;48.40;;;;;;5085803;28;20611;-47
2021/10/18 06:56:10;;;;;;;18.02;16.02;;;24.40;48.70;;;;;;5071367;28;20230;-43
2021/10/18 06:58:41;;;;;;;16.40;14.68;;;24.40;48.80;;;;;;5086094;28;20247;-48
2021/10/18 07:01:11;;;;;;;14.43;12.98;;;24.30;48.80;;;;;;5080737;28;20730;-43
2021/10/18 07:03:42;;;;;;;13.82;12.40;;;24.30;48.60;;;;;;5087574;28;20285;-45
2021/10/18 07:06:12;;;;;;;12.18;10.93;;;24.30;48.60;;;;;;5074574;28;20685;-46
2021/10/18 07:08:44;;;;;;;15.40;11.52;;;24.30;48.50;;;;;;5073903;28;20601;-47
2021/10/18 07:11:15;;;;;;;13.77;11.32;;;24.30;48.40;;;;;;5075619;28;20250;-50
2021/10/18 07:13:45;;;;;;;11.55;10.45;;;24.30;48.40;;;;;;5082816;28;20731;-48
2021/10/18 07:16:16;;;;;;;12.65;10.57;;;24.30;48.40;;;;;;5073370;28;20660;-45
2021/10/18 07:18:47;;;;;;;11.93;10.32;;;24.20;48.20;;;;;;5072259;28;20732;-46
2021/10/18 07:21:18;;;;;;;11.45;10.02;;;24.20;48.30;;;;;;5074136;28;20246;-47
2021/10/18 07:23:55;;;;;;;11.25;10.13;;;24.20;48.20;;;;;;5073280;28;20238;-47
2021/10/18 07:26:25;;;;;;;12.55;10.15;;;24.10;48.20;;;;;;5084739;28;20288;-49
2021/10/18 07:28:56;;;;;;;10.50;9.07;;;24.10;48.20;;;;;;5079492;28;20195;-48
2021/10/18 07:31:26;;;;;;;12.25;9.15;;;24.10;48.20;;;;;;5072884;28;20261;-49
2021/10/18 07:34:01;;;;;;;11.40;9.65;;;24.00;48.20;;;;;;5077234;28;20556;-48
2021/10/18 07:36:34;;;;;;;10.38;9.00;;;24.00;48.20;;;;;;5088142;28;20221;-45
2021/10/18 07:39:07;;;;;;;9.50;8.43;;;24.00;48.20;;;;;;5088916;28;20198;-51
2021/10/18 07:41:38;;;;;;;10.10;8.40;;;23.90;48.10;;;;;;5089618;28;20218;-49
2021/10/18 07:44:08;;;;;;;10.57;8.65;;;23.90;48.20;;;;;;5072107;28;20245;-51
2021/10/18 07:46:39;;;;;;;8.55;7.57;;;23.90;48.20;;;;;;5073595;28;20281;-51
2021/10/18 07:49:10;;;;;;;9.27;7.80;;;23.90;48.20;;;;;;5073635;28;20239;-48
2021/10/18 07:51:41;;;;;;;9.35;7.75;;;23.80;48.10;;;;;;5072040;28;20736;-46
2021/10/18 07:54:13;;;;;;;8.30;7.50;;;23.80;48.20;;;;;;5074673;28;20227;-48
2021/10/18 07:56:44;;;;;;;8.15;7.18;;;23.80;48.20;;;;;;5071188;28;20254;-45
2021/10/18 07:59:14;;;;;;;7.65;6.95;;;23.80;48.20;;;;;;5071902;28;20659;-48
2021/10/18 08:01:45;;;;;;;7.28;6.22;;;23.70;48.10;;;;;;5071121;28;20249;-47
2021/10/18 08:04:15;;;;;;;7.93;6.55;;;23.70;48.20;;;;;;5072424;28;20617;-45
2021/10/18 08:06:46;;;;;;;8.90;6.50;;;23.70;48.20;;;;;;5087159;28;20241;-46
2021/10/18 08:09:19;;;;;;;6.53;5.93;;;23.70;48.20;;;;;;5072052;28;20226;-47
2021/10/18 08:11:50;;;;;;;6.05;5.45;;;23.60;48.10;;;;;;5072367;28;20195;-54
2021/10/18 08:14:20;;;;;;;8.68;6.00;;;23.60;48.10;;;;;;5071652;28;20286;-48
2021/10/18 08:16:51;;;;;;;6.45;5.70;;;23.50;48.10;;;;;;5073300;28;20288;-49
2021/10/18 08:19:21;;;;;;;6.45;5.68;;;23.50;48.20;;;;;;5073844;28;20237;-45
2021/10/18 08:21:52;;;;;;;7.78;5.40;;;23.50;48.20;;;;;;5074185;28;20291;-47
2021/10/18 08:24:25;;;;;;;7.72;5.13;;;23.40;48.20;;;;;;5071881;28;20199;-49
2021/10/18 08:26:56;;;;;;;5.60;5.07;;;23.40;48.20;;;;;;5071843;28;20721;-46
2021/10/18 08:29:27;;;;;;;5.60;5.10;;;23.40;48.20;;;;;;5070813;28;20236;-48
2021/10/18 08:31:57;;;;;;;5.95;4.93;;;23.30;48.20;;;;;;5072145;28;20242;-43
2021/10/18 08:34:28;;;;;;;6.20;4.82;;;23.30;48.20;;;;;;5072071;28;20241;-46
2021/10/18 08:37:01;;;;;;;5.72;4.70;;;23.30;48.20;;;;;;5071525;28;20331;-41
2021/10/18 08:42:23;;;;;;;6.50;4.75;;;23.20;48.20;;;;;;5072976;28;20575;-44
2021/10/18 08:44:53;;;;;;;4.82;4.30;;;23.20;48.20;;;;;;5077741;28;20203;-47
2021/10/18 08:47:28;;;;;;;6.50;4.75;;;23.20;48.20;;;;;;5069896;28;20491;-48
2021/10/18 08:49:58;;;;;;;5.82;4.50;;;23.10;48.20;;;;;;5070986;28;20250;-47
2021/10/18 08:52:29;;;;;;;5.43;4.60;;;23.10;48.20;;;;;;5087402;28;20233;-51
2021/10/18 08:55:01;;;;;;;8.63;4.70;;;23.00;48.20;;;;;;5069946;28;20590;-50
2021/10/18 08:57:34;;;;;;;5.55;4.20;;;23.00;48.20;;;;;;5071186;28;20203;-47
2021/10/18 09:00:06;;;;;;;6.57;4.93;;;23.00;48.30;;;;;;5070664;28;20255;-49
2021/10/18 09:02:40;;;;;;;4.85;3.88;;;22.90;48.20;;;;;;5070420;28;20730;-53
2021/10/18 09:05:12;;;;;;;6.05;4.68;;;22.90;48.30;;;;;;5077929;28;20205;-43
2021/10/18 09:07:43;;;;;;;4.63;4.15;;;22.90;48.40;;;;;;5083895;28;20285;-43
2021/10/18 09:10:18;;;;;;;6.22;4.45;;;22.80;48.40;;;;;;5085464;28;20314;-48
2021/10/18 09:12:48;;;;;;;4.38;3.55;;;22.80;48.40;;;;;;5085152;28;20293;-51
2021/10/18 09:15:23;;;;;;;4.53;3.78;;;22.80;48.40;;;;;;5084299;28;20214;-51
2021/10/18 09:17:58;;;;;;;4.95;4.20;;;22.70;48.30;;;;;;5085936;28;20197;-54
2021/10/18 09:20:30;;;;;;;4.28;3.88;;;22.70;48.30;;;;;;5070258;28;20253;-51
2021/10/18 09:23:24;;;;;;;4.50;3.65;;;22.70;48.40;;;;;;5068374;28;20293;-50
2021/10/18 09:26:01;;;;;;;4.90;3.83;;;22.60;48.30;;;;;;5084807;28;20641;-50
2021/10/18 09:28:31;;;;;;;4.72;3.70;;;22.60;48.40;;;;;;5084816;28;20205;-50
2021/10/18 09:31:02;;;;;;;4.55;3.78;;;22.60;48.40;;;;;;5082660;28;20249;-47
2021/10/18 09:33:35;;;;;;;4.20;3.80;;;22.50;48.40;;;;;;5076153;28;20226;-52
2021/10/18 09:36:10;;;;;;;4.85;3.58;;;22.50;48.50;;;;;;5078041;28;20605;-52
2021/10/18 09:38:40;;;;;;;3.40;3.10;;;22.40;48.50;;;;;;5070622;28;20877;-51
2021/10/18 09:41:13;;;;;;;3.97;3.50;;;22.40;48.50;;;;;;5069930;28;20210;-54
2021/10/18 09:43:55;;;;;;;4.72;3.63;;;22.40;48.50;;;;;;5068658;28;20241;-51
2021/10/18 09:46:36;;;;;;;4.07;3.22;;;22.30;48.50;;;;;;5070809;28;20240;-54
2021/10/18 10:51:21;;;;;;;2.95;2.50;;;21.60;48.90;;;;;;5074340;28;20693;-45
2021/10/18 10:53:54;;;;;;;2.70;2.40;;;21.60;48.90;;;;;;5072487;28;20194;-43
2021/10/18 10:56:30;;;;;;;3.50;2.33;;;21.50;48.90;;;;;;5073157;28;20260;-46
2021/10/18 10:59:13;;;;;;;3.40;2.40;;;21.50;48.90;;;;;;5083810;28;20225;-48
2021/10/18 11:01:58;;;;;;;3.50;2.60;;;21.50;49.00;;;;;;5076318;28;20250;-45
2021/10/18 11:04:50;;;;;;;2.35;2.15;;;21.40;49.00;;;;;;5078770;28;20709;-46
2021/10/18 11:07:23;;;;;;;2.40;2.17;;;21.40;49.00;;;;;;5076212;28;20282;-47
2021/10/18 11:09:54;;;;;;;2.60;2.40;;;21.40;49.00;;;;;;5074516;28;20310;-50
2021/10/18 11:12:28;;;;;;;2.88;2.60;;;21.30;49.00;;;;;;5074261;28;20223;-47
2021/10/18 11:15:01;;;;;;;4.25;2.40;;;21.30;49.00;;;;;;5074308;28;20238;-45
2021/10/18 11:17:33;;;;;;;3.67;2.65;;;21.30;49.00;;;;;;5072555;28;20260;-48
2021/10/18 11:20:09;;;;;;;2.33;1.88;;;21.30;49.10;;;;;;5072219;28;20263;-48
2021/10/18 11:22:41;;;;;;;2.45;2.25;;;21.20;49.10;;;;;;5089315;28;20225;-48
2021/10/18 11:25:14;;;;;;;2.25;1.95;;;21.20;49.10;;;;;;5072153;28;20226;-47
2021/10/18 11:27:46;;;;;;;2.67;2.03;;;21.20;49.10;;;;;;5072026;28;20226;-48
2021/10/18 11:30:19;;;;;;;2.58;2.20;;;21.20;49.10;;;;;;5072333;28;20305;-45
2021/10/18 11:32:59;;;;;;;2.58;2.35;;;21.20;49.10;;;;;;5072407;28;20245;-47
2021/10/18 11:35:32;;;;;;;2.13;1.92;;;21.20;49.10;;;;;;5073206;28;20259;-45
2021/10/18 11:38:05;;;;;;;2.45;2.20;;;21.10;49.20;;;;;;5078305;28;20573;-49
2021/10/18 11:40:37;;;;;;;2.60;2.13;;;21.10;49.20;;;;;;5082538;28;20218;-48
2021/10/18 11:43:09;;;;;;;2.05;1.90;;;21.10;49.10;;;;;;5073257;28;20222;-43
2021/10/18 11:45:41;;;;;;;2.95;2.17;;;21.10;49.20;;;;;;5070594;28;20229;-44
2021/10/18 11:48:12;;;;;;;2.92;2.17;;;21.00;49.20;;;;;;5087660;28;20255;-42
2021/10/18 11:50:46;;;;;;;2.88;2.00;;;21.00;49.20;;;;;;5070934;28;20289;-49
2021/10/18 11:53:17;;;;;;;2.25;2.00;;;21.00;49.20;;;;;;5072176;28;20282;-47
2021/10/18 11:55:50;;;;;;;2.33;1.85;;;21.00;49.30;;;;;;5085320;28;20253;-45
2021/10/18 11:58:22;;;;;;;2.70;2.28;;;20.90;49.20;;;;;;5077458;28;20210;-48
2021/10/18 12:01:00;;;;;;;2.90;1.98;;;20.90;49.30;;;;;;5071973;28;20677;-46
2021/10/18 12:03:31;;;;;;;2.80;2.00;;;20.90;49.30;;;;;;5071412;28;20269;-47
2021/10/18 12:06:05;;;;;;;2.30;2.10;;;20.80;49.30;;;;;;5081405;28;20645;-45
2021/10/18 12:08:36;;;;;;;2.83;2.13;;;20.80;49.30;;;;;;5071694;28;20639;-48
2021/10/18 12:11:08;;;;;;;1.98;1.77;;;20.80;49.30;;;;;;5071480;28;20245;-46
2021/10/18 12:13:39;;;;;;;2.00;1.80;;;20.80;49.40;;;;;;5070852;28;20234;-49
2021/10/18 12:16:19;;;;;;;2.10;1.90;;;20.80;49.30;;;;;;5080672;28;20303;-47
2021/10/18 12:18:51;;;;;;;2.42;1.80;;;20.70;49.30;;;;;;5071267;28;20203;-40
2021/10/18 12:21:28;;;;;;;2.17;1.92;;;20.70;49.70;;;;;;5071923;28;20218;-48
2021/10/18 12:24:00;;;;;;;2.22;1.80;;;20.70;49.40;;;;;;5071812;28;20241;-44
2021/10/18 12:26:31;;;;;;;2.22;1.80;;;20.60;49.30;;;;;;5078661;28;20677;-47
2021/10/18 12:29:08;;;;;;;2.65;1.80;;;20.60;49.40;;;;;;5077680;28;20237;-41
2021/10/18 12:31:40;;;;;;;2.17;1.98;;;20.60;49.40;;;;;;5072583;28;20297;-47
2021/10/18 12:34:27;;;;;;;1.95;1.70;;;20.60;49.40;;;;;;5070943;28;20848;-48
2021/10/18 12:37:04;;;;;;;2.00;1.73;;;20.60;49.40;;;;;;5073100;28;20930;-46
2021/10/18 12:39:37;;;;;;;2.08;1.80;;;20.50;49.40;;;;;;5070693;28;20194;-46
2021/10/18 12:42:08;;;;;;;2.10;1.85;;;20.50;49.40;;;;;;5071843;28;20776;-48
2021/10/18 12:44:40;;;;;;;2.38;2.00;;;20.50;49.40;;;;;;5087278;28;20229;-47
2021/10/18 12:47:19;;;;;;;1.85;1.73;;;20.50;49.40;;;;;;5070739;28;20230;-46
2021/10/18 12:49:53;;;;;;;2.55;1.63;;;20.40;49.40;;;;;;5071351;28;20247;-46
2021/10/18 12:52:33;;;;;;;1.92;1.80;;;20.40;49.50;;;;;;5070912;28;20284;-42
2021/10/18 12:55:12;;;;;;;2.10;1.67;;;20.40;49.50;;;;;;5070323;28;20222;-42
2021/10/18 12:57:50;;;;;;;2.13;1.70;;;20.40;49.50;;;;;;5070560;28;20297;-45
2021/10/18 13:00:27;;;;;;;1.75;1.63;;;20.30;49.50;;;;;;5072147;28;20965;-45
2021/10/18 13:02:59;;;;;;;2.30;1.63;;;20.30;49.50;;;;;;5072383;28;20275;-43
2021/10/18 13:05:31;;;;;;;1.50;1.40;;;20.30;49.50;;;;;;5075547;28;20293;-44
2021/10/18 13:08:04;;;;;;;1.52;1.42;;;20.30;49.60;;;;;;5072517;28;20209;-43
2021/10/18 13:10:36;;;;;;;1.80;1.67;;;20.30;49.50;;;;;;5069694;28;20654;-45
2021/10/18 13:13:08;;;;;;;1.70;1.60;;;20.30;49.60;;;;;;5069207;28;20238;-45
2021/10/18 13:15:40;;;;;;;2.60;1.60;;;20.20;49.60;;;;;;5069816;28;20233;-49
2021/10/18 13:18:11;;;;;;;1.58;1.48;;;20.20;49.60;;;;;;5070275;28;20253;-46
2021/10/18 13:20:43;;;;;;;2.28;1.70;;;20.20;49.60;;;;;;5070984;28;20305;-45
2021/10/18 13:23:19;;;;;;;1.98;1.45;;;20.10;49.50;;;;;;5070683;28;20659;-46
2021/10/18 13:25:51;;;;;;;2.08;1.50;;;20.10;49.60;;;;;;5070384;28;20591;-45
2021/10/18 13:28:21;;;;;;;1.83;1.50;;;20.10;49.60;;;;;;5071435;28;20273;-44
2021/10/18 13:30:52;;;;;;;1.88;1.52;;;20.10;49.60;;;;;;5070827;28;20316;-48
2021/10/18 13:33:23;;;;;;;2.10;1.65;;;20.10;49.70;;;;;;5071051;28;20190;-42
2021/10/18 13:35:53;;;;;;;1.52;1.42;;;20.00;49.70;;;;;;5073376;28;20289;-44
2021/10/18 13:38:25;;;;;;;3.22;1.70;;;20.00;49.70;;;;;;5068340;28;20590;-46
2021/10/18 13:40:56;;;;;;;2.17;1.60;;;20.00;49.70;;;;;;5071273;28;20257;-45
2021/10/18 13:43:26;;;;;;;1.30;1.20;;;20.00;49.70;;;;;;5083399;28;20201;-42
2021/10/18 13:45:57;;;;;;;1.85;1.38;;;19.90;49.70;;;;;;5076824;28;20230;-52
2021/10/18 13:48:27;;;;;;;1.55;1.45;;;19.90;49.70;;;;;;5070855;28;20833;-47
2021/10/18 13:50:58;;;;;;;1.58;1.40;;;19.90;49.70;;;;;;5070427;28;20718;-49
2021/10/18 13:53:30;;;;;;;1.90;1.40;;;19.90;49.70;;;;;;5071996;28;20235;-43
2021/10/18 13:56:00;;;;;;;1.70;1.60;;;19.80;49.60;;;;;;5073587;28;20264;-44
2021/10/18 13:58:31;;;;;;;1.70;1.55;;;19.80;50.30;;;;;;5092114;28;20245;-48
2021/10/18 14:01:01;;;;;;;1.48;1.38;;;19.80;49.70;;;;;;5073579;28;20305;-43
2021/10/18 14:03:32;;;;;;;1.70;1.38;;;19.80;49.70;;;;;;5075230;28;20237;-48
2021/10/18 14:06:02;;;;;;;2.55;1.40;;;19.80;49.70;;;;;;5072820;28;20205;-43
2021/10/18 14:08:35;;;;;;;2.75;1.42;;;19.70;49.70;;;;;;5082278;28;20229;-47
2021/10/18 14:11:05;;;;;;;1.80;1.58;;;19.70;49.70;;;;;;5087393;28;20300;-45
2021/10/18 14:13:37;;;;;;;1.65;1.55;;;19.70;49.70;;;;;;5084142;28;20630;-42